Wilmington, NC

4:49 PM EST on December 20, 2014 (GMT -0500)
NC STATE PORTS | Change Station
CLOSE
Current Station
Personal Weather Station
Location: WILMINGTON, NC
Elevation: 12 ft
Nearby Weather Stations

Elev 12 ft 34.20 °N, 77.95 °W | Updated 35 seconds ago

Light Rain
Light Rain
44.4 °F
Feels Like 44 °F
N
0.0
Wind Variable Wind from North
Gusts 6.3 mph

Today
High -- | Low -- °F
--% Chance of Precip.
Yesterday
High -- | Low -- °F
Precip. -- in
7:13 AM 5:05 PM
Waning Crescent, 2% visible
Pressure 30.23 in
Visibility 7.0 miles
Clouds Scattered Clouds 900 ft
Overcast 6000 ft
Windchill 44 °F
Dew Point 44 °F
Humidity 100%
Rainfall -999.00 in
Snow Depth Not available.
UV 0 out of 12
Pollen .60 out of 12
Air Quality Not available.
Flu Activity Not available.
SPECI KILM 202117Z 04006KT 7SM -RA SCT009 OVC060 07/05 A3023 RMK AO2 P0001 T00670050

More Conditions Fewer Conditions

Pressure 30.23 in
Visibility 7.0 miles
Clouds Scattered Clouds 900 ft
Overcast 6000 ft
Windchill 44 °F
Dew Point 44 °F
Humidity 100%
Rainfall -999.00 in
Snow Depth Not available.
UV 0 out of 12
Pollen .60 out of 12
Air Quality Not available.
Flu Activity Not available.
SPECI KILM 202117Z 04006KT 7SM -RA SCT009 OVC060 07/05 A3023 RMK AO2 P0001 T00670050

More Conditions Fewer Conditions

10-Day Weather Forecast

Almanac

Astronomy

Dec. 20, 2014 Rise Set
Actual Time
Civil Twilight
Nautical Twilight
Astronomical Twilight
Moon
Length of Visible Light
Length of Day
Tomorrow will be .
, % of the Moon is Illuminated

Today's Extremes

State Highs State Lows

Community

WunderPhotos

Upload Photos

1,779,286 photos uploaded!

WunderBlogs® & News

Nearby

Air Quality

  Air Quality AQ Index Pollutant
Not available.

Snow Depth

Station Depth Elevation

Earthquake Activity

City Distance Mag. Time & Date
Minimum magnitude displayed is 2.5.

Coastal Water Temperatures

Place Temperature

Nearby Weather Stations